sensor_id;sensor_type;location;lat;lon;timestamp;temperature;humidity
30174;DHT22;16985;50.814;8.530;2023-12-22T00:02:24;4.60;99.90
30174;DHT22;16985;50.814;8.530;2023-12-22T00:04:52;4.70;99.90
30174;DHT22;16985;50.814;8.530;2023-12-22T00:07:18;4.60;99.90
30174;DHT22;16985;50.814;8.530;2023-12-22T00:10:00;4.60;99.90
30174;DHT22;16985;50.814;8.530;2023-12-22T00:12:28;4.70;99.90
30174;DHT22;16985;50.814;8.530;2023-12-22T00:14:54;4.60;99.90
30174;DHT22;16985;50.814;8.530;2023-12-22T00:17:21;4.70;99.90
30174;DHT22;16985;50.814;8.530;2023-12-22T00:19:48;4.70;99.90
30174;DHT22;16985;50.814;8.530;2023-12-22T00:22:14;4.70;99.90
30174;DHT22;16985;50.814;8.530;2023-12-22T00:24:41;4.70;99.90
30174;DHT22;16985;50.814;8.530;2023-12-22T00:27:07;4.70;99.90
30174;DHT22;16985;50.814;8.530;2023-12-22T00:29:36;4.80;99.90
30174;DHT22;16985;50.814;8.530;2023-12-22T00:32:07;4.80;99.90
30174;DHT22;16985;50.814;8.530;2023-12-22T00:34:35;4.80;99.90
30174;DHT22;16985;50.814;8.530;2023-12-22T00:37:02;4.80;99.90
30174;DHT22;16985;50.814;8.530;2023-12-22T00:39:31;4.70;99.90
30174;DHT22;16985;50.814;8.530;2023-12-22T00:41:58;4.70;99.90
30174;DHT22;16985;50.814;8.530;2023-12-22T00:44:25;4.70;99.90
30174;DHT22;16985;50.814;8.530;2023-12-22T00:46:56;4.70;99.90
30174;DHT22;16985;50.814;8.530;2023-12-22T00:49:23;4.70;99.90
30174;DHT22;16985;50.814;8.530;2023-12-22T00:51:50;4.60;99.90
30174;DHT22;16985;50.814;8.530;2023-12-22T00:54:17;4.60;99.90
30174;DHT22;16985;50.814;8.530;2023-12-22T00:56:44;4.50;99.90
30174;DHT22;16985;50.814;8.530;2023-12-22T00:59:10;4.60;99.90
30174;DHT22;16985;50.814;8.530;2023-12-22T01:01:37;4.50;99.90
30174;DHT22;16985;50.814;8.530;2023-12-22T01:04:04;4.50;99.90
30174;DHT22;16985;50.814;8.530;2023-12-22T01:06:32;4.50;99.90
30174;DHT22;16985;50.814;8.530;2023-12-22T01:09:03;4.50;99.90
30174;DHT22;16985;50.814;8.530;2023-12-22T01:11:31;4.50;99.90
30174;DHT22;16985;50.814;8.530;2023-12-22T01:13:58;4.50;99.90
30174;DHT22;16985;50.814;8.530;2023-12-22T01:16:25;4.50;99.90
30174;DHT22;16985;50.814;8.530;2023-12-22T01:18:52;4.50;99.90
30174;DHT22;16985;50.814;8.530;2023-12-22T01:21:19;4.50;99.90
30174;DHT22;16985;50.814;8.530;2023-12-22T01:23:46;4.50;99.90
30174;DHT22;16985;50.814;8.530;2023-12-22T01:26:13;4.50;99.90
30174;DHT22;16985;50.814;8.530;2023-12-22T01:28:40;4.50;99.90
30174;DHT22;16985;50.814;8.530;2023-12-22T01:31:07;4.40;99.90
30174;DHT22;16985;50.814;8.530;2023-12-22T01:33:35;4.50;99.90
30174;DHT22;16985;50.814;8.530;2023-12-22T01:36:02;4.50;99.90
30174;DHT22;16985;50.814;8.530;2023-12-22T01:38:30;4.50;99.90
30174;DHT22;16985;50.814;8.530;2023-12-22T01:40:57;4.50;99.90
30174;DHT22;16985;50.814;8.530;2023-12-22T01:43:23;4.50;99.90
30174;DHT22;16985;50.814;8.530;2023-12-22T01:45:56;4.40;99.90
30174;DHT22;16985;50.814;8.530;2023-12-22T01:48:31;4.40;99.90
30174;DHT22;16985;50.814;8.530;2023-12-22T01:51:02;4.40;99.90
30174;DHT22;16985;50.814;8.530;2023-12-22T01:53:31;4.40;99.90
30174;DHT22;16985;50.814;8.530;2023-12-22T01:55:59;4.50;99.90
30174;DHT22;16985;50.814;8.530;2023-12-22T01:58:29;4.40;99.90
30174;DHT22;16985;50.814;8.530;2023-12-22T02:01:04;4.50;99.90
30174;DHT22;16985;50.814;8.530;2023-12-22T02:03:34;4.40;99.90
30174;DHT22;16985;50.814;8.530;2023-12-22T02:06:04;4.40;99.90
30174;DHT22;16985;50.814;8.530;2023-12-22T02:08:32;4.40;99.90
30174;DHT22;16985;50.814;8.530;2023-12-22T02:10:59;4.40;99.90
30174;DHT22;16985;50.814;8.530;2023-12-22T02:13:25;4.40;99.90
30174;DHT22;16985;50.814;8.530;2023-12-22T02:16:04;4.40;99.90
30174;DHT22;16985;50.814;8.530;2023-12-22T02:18:35;4.40;99.90
30174;DHT22;16985;50.814;8.530;2023-12-22T02:21:04;4.40;99.90
30174;DHT22;16985;50.814;8.530;2023-12-22T02:23:30;4.40;99.90
30174;DHT22;16985;50.814;8.530;2023-12-22T02:26:10;4.40;99.90
30174;DHT22;16985;50.814;8.530;2023-12-22T02:28:44;4.40;99.90
30174;DHT22;16985;50.814;8.530;2023-12-22T02:31:20;4.40;99.90
30174;DHT22;16985;50.814;8.530;2023-12-22T02:33:49;4.40;99.90
30174;DHT22;16985;50.814;8.530;2023-12-22T02:36:19;4.40;99.90
30174;DHT22;16985;50.814;8.530;2023-12-22T02:38:46;4.40;99.90
30174;DHT22;16985;50.814;8.530;2023-12-22T02:41:14;4.40;99.90
30174;DHT22;16985;50.814;8.530;2023-12-22T02:43:40;4.40;99.90
30174;DHT22;16985;50.814;8.530;2023-12-22T02:46:13;4.40;99.90
30174;DHT22;16985;50.814;8.530;2023-12-22T02:48:41;4.40;99.90
30174;DHT22;16985;50.814;8.530;2023-12-22T02:51:07;4.40;99.90
30174;DHT22;16985;50.814;8.530;2023-12-22T02:53:33;4.40;99.90
30174;DHT22;16985;50.814;8.530;2023-12-22T02:55:59;4.40;99.90
30174;DHT22;16985;50.814;8.530;2023-12-22T02:58:25;4.40;99.90
30174;DHT22;16985;50.814;8.530;2023-12-22T03:00:51;4.40;99.90
30174;DHT22;16985;50.814;8.530;2023-12-22T03:03:17;4.30;99.90
30174;DHT22;16985;50.814;8.530;2023-12-22T03:05:43;4.30;99.90
30174;DHT22;16985;50.814;8.530;2023-12-22T03:08:08;4.30;99.90
30174;DHT22;16985;50.814;8.530;2023-12-22T03:10:34;4.30;99.90
30174;DHT22;16985;50.814;8.530;2023-12-22T03:13:00;4.30;99.90
30174;DHT22;16985;50.814;8.530;2023-12-22T03:15:26;4.30;99.90
30174;DHT22;16985;50.814;8.530;2023-12-22T03:17:52;4.20;99.90
30174;DHT22;16985;50.814;8.530;2023-12-22T03:20:18;4.20;99.90
30174;DHT22;16985;50.814;8.530;2023-12-22T03:22:44;4.20;99.90
30174;DHT22;16985;50.814;8.530;2023-12-22T03:25:10;4.20;99.90
30174;DHT22;16985;50.814;8.530;2023-12-22T03:27:36;4.10;99.90
30174;DHT22;16985;50.814;8.530;2023-12-22T03:30:02;4.10;99.90
30174;DHT22;16985;50.814;8.530;2023-12-22T03:32:29;4.10;99.90
30174;DHT22;16985;50.814;8.530;2023-12-22T03:34:55;4.10;99.90
30174;DHT22;16985;50.814;8.530;2023-12-22T03:37:20;4.10;99.90
30174;DHT22;16985;50.814;8.530;2023-12-22T03:39:46;4.10;99.90
30174;DHT22;16985;50.814;8.530;2023-12-22T03:42:12;4.10;99.90
30174;DHT22;16985;50.814;8.530;2023-12-22T03:44:38;4.00;99.90
30174;DHT22;16985;50.814;8.530;2023-12-22T03:47:04;4.00;99.90
30174;DHT22;16985;50.814;8.530;2023-12-22T03:49:30;4.00;99.90
30174;DHT22;16985;50.814;8.530;2023-12-22T03:51:56;4.00;99.90
30174;DHT22;16985;50.814;8.530;2023-12-22T03:54:21;4.00;99.90
30174;DHT22;16985;50.814;8.530;2023-12-22T03:56:48;4.00;99.90
30174;DHT22;16985;50.814;8.530;2023-12-22T03:59:16;4.00;99.90
30174;DHT22;16985;50.814;8.530;2023-12-22T04:01:44;3.90;99.90
30174;DHT22;16985;50.814;8.530;2023-12-22T04:04:10;3.90;99.90
30174;DHT22;16985;50.814;8.530;2023-12-22T04:06:39;3.90;99.90
30174;DHT22;16985;50.814;8.530;2023-12-22T04:09:08;3.90;99.90
30174;DHT22;16985;50.814;8.530;2023-12-22T04:11:34;3.90;99.90
30174;DHT22;16985;50.814;8.530;2023-12-22T04:14:01;3.90;99.90
30174;DHT22;16985;50.814;8.530;2023-12-22T04:16:27;3.90;99.90
30174;DHT22;16985;50.814;8.530;2023-12-22T04:18:53;3.80;99.90
30174;DHT22;16985;50.814;8.530;2023-12-22T04:21:19;3.80;99.90
30174;DHT22;16985;50.814;8.530;2023-12-22T04:23:45;3.80;99.90
30174;DHT22;16985;50.814;8.530;2023-12-22T04:26:11;3.80;99.90
30174;DHT22;16985;50.814;8.530;2023-12-22T04:28:37;3.80;99.90
30174;DHT22;16985;50.814;8.530;2023-12-22T04:31:03;3.90;99.90
30174;DHT22;16985;50.814;8.530;2023-12-22T04:33:29;3.80;99.90
30174;DHT22;16985;50.814;8.530;2023-12-22T04:35:56;3.80;99.90
30174;DHT22;16985;50.814;8.530;2023-12-22T04:38:22;3.80;99.90
30174;DHT22;16985;50.814;8.530;2023-12-22T04:40:48;3.80;99.90
30174;DHT22;16985;50.814;8.530;2023-12-22T04:43:14;3.80;99.90
30174;DHT22;16985;50.814;8.530;2023-12-22T04:45:40;3.80;99.90
30174;DHT22;16985;50.814;8.530;2023-12-22T04:48:06;3.80;99.90
30174;DHT22;16985;50.814;8.530;2023-12-22T04:50:32;3.80;99.90
30174;DHT22;16985;50.814;8.530;2023-12-22T04:52:58;3.90;99.90
30174;DHT22;16985;50.814;8.530;2023-12-22T04:55:24;3.80;99.90
30174;DHT22;16985;50.814;8.530;2023-12-22T04:57:50;3.90;99.90
30174;DHT22;16985;50.814;8.530;2023-12-22T05:00:16;3.80;99.90
30174;DHT22;16985;50.814;8.530;2023-12-22T05:02:42;3.80;99.90
30174;DHT22;16985;50.814;8.530;2023-12-22T05:05:08;3.80;99.90
30174;DHT22;16985;50.814;8.530;2023-12-22T05:07:34;3.80;99.90
30174;DHT22;16985;50.814;8.530;2023-12-22T05:10:01;3.80;99.90
30174;DHT22;16985;50.814;8.530;2023-12-22T05:12:27;3.80;99.90
30174;DHT22;16985;50.814;8.530;2023-12-22T05:14:53;3.80;99.90
30174;DHT22;16985;50.814;8.530;2023-12-22T05:17:20;3.80;99.90
30174;DHT22;16985;50.814;8.530;2023-12-22T05:19:46;3.80;99.90
30174;DHT22;16985;50.814;8.530;2023-12-22T05:22:12;3.90;99.90
30174;DHT22;16985;50.814;8.530;2023-12-22T05:24:38;3.80;99.90
30174;DHT22;16985;50.814;8.530;2023-12-22T05:27:04;3.80;99.90
30174;DHT22;16985;50.814;8.530;2023-12-22T05:29:30;3.80;99.90
30174;DHT22;16985;50.814;8.530;2023-12-22T05:31:56;3.80;99.90
30174;DHT22;16985;50.814;8.530;2023-12-22T05:34:22;3.80;99.90
30174;DHT22;16985;50.814;8.530;2023-12-22T05:36:48;3.80;99.90
30174;DHT22;16985;50.814;8.530;2023-12-22T05:39:14;3.80;99.90
30174;DHT22;16985;50.814;8.530;2023-12-22T05:41:40;3.80;99.90
30174;DHT22;16985;50.814;8.530;2023-12-22T05:44:07;3.90;99.90
30174;DHT22;16985;50.814;8.530;2023-12-22T05:46:39;3.90;99.90
30174;DHT22;16985;50.814;8.530;2023-12-22T05:49:05;3.90;99.90
30174;DHT22;16985;50.814;8.530;2023-12-22T05:51:40;4.00;99.90
30174;DHT22;16985;50.814;8.530;2023-12-22T05:54:09;3.90;99.90
30174;DHT22;16985;50.814;8.530;2023-12-22T05:56:36;3.90;99.90
30174;DHT22;16985;50.814;8.530;2023-12-22T05:59:03;4.00;99.90
30174;DHT22;16985;50.814;8.530;2023-12-22T06:01:29;4.00;99.90
30174;DHT22;16985;50.814;8.530;2023-12-22T06:03:54;4.00;99.90
30174;DHT22;16985;50.814;8.530;2023-12-22T06:06:21;4.10;99.90
30174;DHT22;16985;50.814;8.530;2023-12-22T06:08:47;4.10;99.90
30174;DHT22;16985;50.814;8.530;2023-12-22T06:11:14;4.10;99.90
30174;DHT22;16985;50.814;8.530;2023-12-22T06:13:39;4.10;99.90
30174;DHT22;16985;50.814;8.530;2023-12-22T06:16:06;4.20;99.90
30174;DHT22;16985;50.814;8.530;2023-12-22T06:18:33;4.20;99.90
30174;DHT22;16985;50.814;8.530;2023-12-22T06:21:00;4.20;99.90
30174;DHT22;16985;50.814;8.530;2023-12-22T06:23:26;4.20;99.90
30174;DHT22;16985;50.814;8.530;2023-12-22T06:25:52;4.30;99.90
30174;DHT22;16985;50.814;8.530;2023-12-22T06:28:18;4.30;99.90
30174;DHT22;16985;50.814;8.530;2023-12-22T06:30:44;4.30;99.90
30174;DHT22;16985;50.814;8.530;2023-12-22T06:33:10;4.30;99.90
30174;DHT22;16985;50.814;8.530;2023-12-22T06:35:37;4.30;99.90
30174;DHT22;16985;50.814;8.530;2023-12-22T06:38:03;4.30;99.90
30174;DHT22;16985;50.814;8.530;2023-12-22T06:40:34;4.30;99.90
30174;DHT22;16985;50.814;8.530;2023-12-22T06:43:00;4.30;99.90
30174;DHT22;16985;50.814;8.530;2023-12-22T06:45:26;4.30;99.90
30174;DHT22;16985;50.814;8.530;2023-12-22T06:47:52;4.20;99.90
30174;DHT22;16985;50.814;8.530;2023-12-22T06:50:17;4.30;99.90
30174;DHT22;16985;50.814;8.530;2023-12-22T06:52:43;4.30;99.90
30174;DHT22;16985;50.814;8.530;2023-12-22T06:55:09;4.30;99.90
30174;DHT22;16985;50.814;8.530;2023-12-22T06:57:35;4.30;99.90
30174;DHT22;16985;50.814;8.530;2023-12-22T07:00:01;4.30;99.90
30174;DHT22;16985;50.814;8.530;2023-12-22T07:02:27;4.30;99.90
30174;DHT22;16985;50.814;8.530;2023-12-22T07:07:35;4.30;99.90
30174;DHT22;16985;50.814;8.530;2023-12-22T07:10:02;4.30;99.90
30174;DHT22;16985;50.814;8.530;2023-12-22T07:12:29;4.30;99.90
30174;DHT22;16985;50.814;8.530;2023-12-22T07:14:55;4.30;99.90
30174;DHT22;16985;50.814;8.530;2023-12-22T07:17:21;4.30;99.90
30174;DHT22;16985;50.814;8.530;2023-12-22T07:19:47;4.30;99.90
30174;DHT22;16985;50.814;8.530;2023-12-22T07:22:13;4.30;99.90
30174;DHT22;16985;50.814;8.530;2023-12-22T07:24:40;4.30;99.90
30174;DHT22;16985;50.814;8.530;2023-12-22T07:27:06;4.30;99.90
30174;DHT22;16985;50.814;8.530;2023-12-22T07:29:32;4.30;99.90
30174;DHT22;16985;50.814;8.530;2023-12-22T07:31:58;4.30;99.90
30174;DHT22;16985;50.814;8.530;2023-12-22T07:34:24;4.30;99.90
30174;DHT22;16985;50.814;8.530;2023-12-22T07:36:51;4.30;99.90
30174;DHT22;16985;50.814;8.530;2023-12-22T07:39:18;4.40;99.90
30174;DHT22;16985;50.814;8.530;2023-12-22T07:41:44;4.40;99.90
30174;DHT22;16985;50.814;8.530;2023-12-22T07:44:10;4.40;99.90
30174;DHT22;16985;50.814;8.530;2023-12-22T07:46:37;4.40;99.90
30174;DHT22;16985;50.814;8.530;2023-12-22T07:49:03;4.50;99.90
30174;DHT22;16985;50.814;8.530;2023-12-22T07:51:30;4.40;99.90
30174;DHT22;16985;50.814;8.530;2023-12-22T07:54:00;4.40;99.90
30174;DHT22;16985;50.814;8.530;2023-12-22T07:56:33;4.40;99.90
30174;DHT22;16985;50.814;8.530;2023-12-22T07:59:02;4.40;99.90
30174;DHT22;16985;50.814;8.530;2023-12-22T08:01:29;4.40;99.90
30174;DHT22;16985;50.814;8.530;2023-12-22T08:03:58;4.40;99.90
30174;DHT22;16985;50.814;8.530;2023-12-22T08:06:26;4.40;99.90
30174;DHT22;16985;50.814;8.530;2023-12-22T08:08:55;4.40;99.90
30174;DHT22;16985;50.814;8.530;2023-12-22T08:11:23;4.40;99.90
30174;DHT22;16985;50.814;8.530;2023-12-22T08:13:55;4.40;99.90
30174;DHT22;16985;50.814;8.530;2023-12-22T08:16:24;4.50;99.90
30174;DHT22;16985;50.814;8.530;2023-12-22T08:18:54;4.50;99.90
30174;DHT22;16985;50.814;8.530;2023-12-22T08:21:21;4.50;99.90
30174;DHT22;16985;50.814;8.530;2023-12-22T08:23:50;4.50;99.90
30174;DHT22;16985;50.814;8.530;2023-12-22T08:26:18;4.50;99.90
30174;DHT22;16985;50.814;8.530;2023-12-22T08:28:46;4.60;99.90
30174;DHT22;16985;50.814;8.530;2023-12-22T08:31:14;4.60;99.90
30174;DHT22;16985;50.814;8.530;2023-12-22T08:33:40;4.70;99.90
30174;DHT22;16985;50.814;8.530;2023-12-22T08:36:09;4.60;99.90
30174;DHT22;16985;50.814;8.530;2023-12-22T08:38:36;4.70;99.90
30174;DHT22;16985;50.814;8.530;2023-12-22T08:41:07;4.80;99.90
30174;DHT22;16985;50.814;8.530;2023-12-22T08:43:35;4.80;99.90
30174;DHT22;16985;50.814;8.530;2023-12-22T08:46:04;4.80;99.90
30174;DHT22;16985;50.814;8.530;2023-12-22T08:48:34;4.80;99.90
30174;DHT22;16985;50.814;8.530;2023-12-22T08:51:03;4.80;99.90
30174;DHT22;16985;50.814;8.530;2023-12-22T08:53:32;4.90;99.90
30174;DHT22;16985;50.814;8.530;2023-12-22T08:56:03;4.90;99.90
30174;DHT22;16985;50.814;8.530;2023-12-22T08:58:32;4.90;99.90
30174;DHT22;16985;50.814;8.530;2023-12-22T09:00:59;4.90;99.90
30174;DHT22;16985;50.814;8.530;2023-12-22T09:03:31;5.00;99.90
30174;DHT22;16985;50.814;8.530;2023-12-22T09:05:59;5.00;99.90
30174;DHT22;16985;50.814;8.530;2023-12-22T09:08:27;5.00;99.90
30174;DHT22;16985;50.814;8.530;2023-12-22T09:10:54;5.00;99.90
30174;DHT22;16985;50.814;8.530;2023-12-22T09:13:22;5.00;99.90
30174;DHT22;16985;50.814;8.530;2023-12-22T09:15:50;5.10;99.90
30174;DHT22;16985;50.814;8.530;2023-12-22T09:18:16;5.10;99.90
30174;DHT22;16985;50.814;8.530;2023-12-22T09:20:44;5.10;99.90
30174;DHT22;16985;50.814;8.530;2023-12-22T09:23:14;5.20;99.90
30174;DHT22;16985;50.814;8.530;2023-12-22T09:25:41;5.20;99.90
30174;DHT22;16985;50.814;8.530;2023-12-22T09:28:09;5.20;99.90
30174;DHT22;16985;50.814;8.530;2023-12-22T09:30:36;5.20;99.90
30174;DHT22;16985;50.814;8.530;2023-12-22T09:33:03;5.20;99.90
30174;DHT22;16985;50.814;8.530;2023-12-22T09:35:30;5.30;99.90
30174;DHT22;16985;50.814;8.530;2023-12-22T09:37:57;5.30;99.90
30174;DHT22;16985;50.814;8.530;2023-12-22T09:40:25;5.30;99.90
30174;DHT22;16985;50.814;8.530;2023-12-22T09:42:55;5.40;99.90
30174;DHT22;16985;50.814;8.530;2023-12-22T09:45:24;5.40;99.90
30174;DHT22;16985;50.814;8.530;2023-12-22T09:47:53;5.40;99.90
30174;DHT22;16985;50.814;8.530;2023-12-22T09:50:22;5.40;99.90
30174;DHT22;16985;50.814;8.530;2023-12-22T09:52:50;5.40;99.90
30174;DHT22;16985;50.814;8.530;2023-12-22T09:55:17;5.50;99.90
30174;DHT22;16985;50.814;8.530;2023-12-22T09:57:47;5.50;99.90
30174;DHT22;16985;50.814;8.530;2023-12-22T10:00:16;5.60;99.90
30174;DHT22;16985;50.814;8.530;2023-12-22T10:02:43;5.60;99.90
30174;DHT22;16985;50.814;8.530;2023-12-22T10:05:11;5.60;99.90
30174;DHT22;16985;50.814;8.530;2023-12-22T10:07:42;5.60;99.90
30174;DHT22;16985;50.814;8.530;2023-12-22T10:10:10;5.60;99.90
30174;DHT22;16985;50.814;8.530;2023-12-22T10:12:38;5.70;99.90
30174;DHT22;16985;50.814;8.530;2023-12-22T10:15:08;5.70;99.90
30174;DHT22;16985;50.814;8.530;2023-12-22T10:17:36;5.70;99.90
30174;DHT22;16985;50.814;8.530;2023-12-22T10:20:03;5.70;99.90
30174;DHT22;16985;50.814;8.530;2023-12-22T10:22:32;5.80;99.90
30174;DHT22;16985;50.814;8.530;2023-12-22T10:25:00;5.80;99.90
30174;DHT22;16985;50.814;8.530;2023-12-22T10:27:29;5.80;99.90
30174;DHT22;16985;50.814;8.530;2023-12-22T10:29:58;5.80;99.90
30174;DHT22;16985;50.814;8.530;2023-12-22T10:32:25;5.80;99.90
30174;DHT22;16985;50.814;8.530;2023-12-22T10:34:54;5.90;99.90
30174;DHT22;16985;50.814;8.530;2023-12-22T10:37:22;5.90;99.90
30174;DHT22;16985;50.814;8.530;2023-12-22T10:39:56;5.90;99.90
30174;DHT22;16985;50.814;8.530;2023-12-22T10:42:24;5.90;99.90
30174;DHT22;16985;50.814;8.530;2023-12-22T10:44:52;5.90;99.90
30174;DHT22;16985;50.814;8.530;2023-12-22T10:47:20;5.90;99.90
30174;DHT22;16985;50.814;8.530;2023-12-22T10:49:49;6.00;99.90
30174;DHT22;16985;50.814;8.530;2023-12-22T10:52:16;5.90;99.90
30174;DHT22;16985;50.814;8.530;2023-12-22T10:54:49;6.00;99.90
30174;DHT22;16985;50.814;8.530;2023-12-22T10:57:18;6.00;99.90
30174;DHT22;16985;50.814;8.530;2023-12-22T10:59:48;6.00;99.90
30174;DHT22;16985;50.814;8.530;2023-12-22T11:02:19;6.00;99.90
30174;DHT22;16985;50.814;8.530;2023-12-22T11:07:24;6.00;99.90
30174;DHT22;16985;50.814;8.530;2023-12-22T11:09:51;6.10;99.90
30174;DHT22;16985;50.814;8.530;2023-12-22T11:12:23;6.00;99.90
30174;DHT22;16985;50.814;8.530;2023-12-22T11:14:51;6.10;99.90
30174;DHT22;16985;50.814;8.530;2023-12-22T11:17:21;6.10;99.90
30174;DHT22;16985;50.814;8.530;2023-12-22T11:19:57;6.10;99.90
30174;DHT22;16985;50.814;8.530;2023-12-22T11:22:26;6.10;99.90
30174;DHT22;16985;50.814;8.530;2023-12-22T11:24:54;6.10;99.90
30174;DHT22;16985;50.814;8.530;2023-12-22T11:27:23;6.20;99.90
30174;DHT22;16985;50.814;8.530;2023-12-22T11:29:53;6.30;99.90
30174;DHT22;16985;50.814;8.530;2023-12-22T11:32:20;6.20;99.90
30174;DHT22;16985;50.814;8.530;2023-12-22T11:34:48;6.30;99.90
30174;DHT22;16985;50.814;8.530;2023-12-22T11:37:16;6.30;99.90
30174;DHT22;16985;50.814;8.530;2023-12-22T11:39:43;6.30;99.90
30174;DHT22;16985;50.814;8.530;2023-12-22T11:42:28;6.40;99.90
30174;DHT22;16985;50.814;8.530;2023-12-22T11:44:59;6.40;99.90
30174;DHT22;16985;50.814;8.530;2023-12-22T11:47:26;6.40;99.90
30174;DHT22;16985;50.814;8.530;2023-12-22T11:49:56;6.50;99.90
30174;DHT22;16985;50.814;8.530;2023-12-22T11:52:27;6.50;99.90
30174;DHT22;16985;50.814;8.530;2023-12-22T11:54:55;6.50;99.90
30174;DHT22;16985;50.814;8.530;2023-12-22T12:02:27;6.60;99.90
30174;DHT22;16985;50.814;8.530;2023-12-22T12:04:57;6.60;99.90
30174;DHT22;16985;50.814;8.530;2023-12-22T12:07:48;6.60;99.90
30174;DHT22;16985;50.814;8.530;2023-12-22T12:13:06;6.60;99.90
30174;DHT22;16985;50.814;8.530;2023-12-22T12:15:39;6.60;99.90
30174;DHT22;16985;50.814;8.530;2023-12-22T12:18:12;6.60;99.90
30174;DHT22;16985;50.814;8.530;2023-12-22T12:20:42;6.60;99.90
30174;DHT22;16985;50.814;8.530;2023-12-22T12:23:15;6.60;99.90
30174;DHT22;16985;50.814;8.530;2023-12-22T12:25:43;6.60;99.90
30174;DHT22;16985;50.814;8.530;2023-12-22T12:28:11;6.60;99.90
30174;DHT22;16985;50.814;8.530;2023-12-22T12:30:40;6.60;99.90
30174;DHT22;16985;50.814;8.530;2023-12-22T12:33:09;6.50;99.90
30174;DHT22;16985;50.814;8.530;2023-12-22T12:35:41;6.50;99.90
30174;DHT22;16985;50.814;8.530;2023-12-22T12:38:10;6.50;99.90
30174;DHT22;16985;50.814;8.530;2023-12-22T12:40:39;6.50;99.90
30174;DHT22;16985;50.814;8.530;2023-12-22T12:43:06;6.50;99.90
30174;DHT22;16985;50.814;8.530;2023-12-22T12:45:38;6.50;99.90
30174;DHT22;16985;50.814;8.530;2023-12-22T12:48:06;6.50;99.90
30174;DHT22;16985;50.814;8.530;2023-12-22T12:50:33;6.50;99.90
30174;DHT22;16985;50.814;8.530;2023-12-22T12:53:00;6.50;99.90
30174;DHT22;16985;50.814;8.530;2023-12-22T12:55:26;6.60;99.90
30174;DHT22;16985;50.814;8.530;2023-12-22T12:57:54;6.50;99.90
30174;DHT22;16985;50.814;8.530;2023-12-22T13:00:28;6.60;99.90
30174;DHT22;16985;50.814;8.530;2023-12-22T13:03:06;6.60;99.90
30174;DHT22;16985;50.814;8.530;2023-12-22T13:05:34;6.60;99.90
30174;DHT22;16985;50.814;8.530;2023-12-22T13:08:12;6.70;99.90
30174;DHT22;16985;50.814;8.530;2023-12-22T13:10:39;6.70;99.90
30174;DHT22;16985;50.814;8.530;2023-12-22T13:13:07;6.70;99.90
30174;DHT22;16985;50.814;8.530;2023-12-22T13:15:35;6.70;99.90
30174;DHT22;16985;50.814;8.530;2023-12-22T13:18:02;6.70;99.90
30174;DHT22;16985;50.814;8.530;2023-12-22T13:20:29;6.70;99.90
30174;DHT22;16985;50.814;8.530;2023-12-22T13:22:55;6.70;99.90
30174;DHT22;16985;50.814;8.530;2023-12-22T13:25:25;6.70;99.90
30174;DHT22;16985;50.814;8.530;2023-12-22T13:27:51;6.70;99.90
30174;DHT22;16985;50.814;8.530;2023-12-22T13:30:36;6.70;99.90
30174;DHT22;16985;50.814;8.530;2023-12-22T13:33:07;6.70;99.90
30174;DHT22;16985;50.814;8.530;2023-12-22T13:35:42;6.70;99.90
30174;DHT22;16985;50.814;8.530;2023-12-22T13:38:09;6.70;99.90
30174;DHT22;16985;50.814;8.530;2023-12-22T13:40:37;6.70;99.90
30174;DHT22;16985;50.814;8.530;2023-12-22T13:43:05;6.70;99.90
30174;DHT22;16985;50.814;8.530;2023-12-22T13:45:32;6.70;99.90
30174;DHT22;16985;50.814;8.530;2023-12-22T13:47:59;6.70;99.90
30174;DHT22;16985;50.814;8.530;2023-12-22T13:50:27;6.70;99.90
30174;DHT22;16985;50.814;8.530;2023-12-22T13:52:56;6.70;99.90
30174;DHT22;16985;50.814;8.530;2023-12-22T13:55:38;6.70;99.90
30174;DHT22;16985;50.814;8.530;2023-12-22T13:58:09;6.70;99.90
30174;DHT22;16985;50.814;8.530;2023-12-22T14:00:39;6.70;99.90
30174;DHT22;16985;50.814;8.530;2023-12-22T14:03:09;6.70;99.90
30174;DHT22;16985;50.814;8.530;2023-12-22T14:05:35;6.70;99.90
30174;DHT22;16985;50.814;8.530;2023-12-22T14:08:03;6.70;99.90
30174;DHT22;16985;50.814;8.530;2023-12-22T14:10:30;6.70;99.90
30174;DHT22;16985;50.814;8.530;2023-12-22T14:12:57;6.70;99.90
30174;DHT22;16985;50.814;8.530;2023-12-22T14:15:25;6.80;99.90
30174;DHT22;16985;50.814;8.530;2023-12-22T14:17:56;6.80;99.90
30174;DHT22;16985;50.814;8.530;2023-12-22T14:20:24;6.80;99.90
30174;DHT22;16985;50.814;8.530;2023-12-22T14:22:53;6.80;99.90
30174;DHT22;16985;50.814;8.530;2023-12-22T14:25:21;6.80;99.90
30174;DHT22;16985;50.814;8.530;2023-12-22T14:27:51;6.80;99.90
30174;DHT22;16985;50.814;8.530;2023-12-22T14:30:20;6.80;99.90
30174;DHT22;16985;50.814;8.530;2023-12-22T14:32:50;6.80;99.90
30174;DHT22;16985;50.814;8.530;2023-12-22T14:35:20;6.80;99.90
30174;DHT22;16985;50.814;8.530;2023-12-22T14:37:46;6.80;99.90
30174;DHT22;16985;50.814;8.530;2023-12-22T14:40:13;6.80;99.90
30174;DHT22;16985;50.814;8.530;2023-12-22T14:42:40;6.80;99.90
30174;DHT22;16985;50.814;8.530;2023-12-22T14:45:08;6.80;99.90
30174;DHT22;16985;50.814;8.530;2023-12-22T14:47:35;6.80;99.90
30174;DHT22;16985;50.814;8.530;2023-12-22T14:50:02;6.70;99.90
30174;DHT22;16985;50.814;8.530;2023-12-22T14:52:31;6.80;99.90
30174;DHT22;16985;50.814;8.530;2023-12-22T14:55:03;6.80;99.90
30174;DHT22;16985;50.814;8.530;2023-12-22T14:57:31;6.80;99.90
30174;DHT22;16985;50.814;8.530;2023-12-22T15:00:04;6.80;99.90
30174;DHT22;16985;50.814;8.530;2023-12-22T15:02:33;6.80;99.90
30174;DHT22;16985;50.814;8.530;2023-12-22T15:05:01;6.80;99.90
30174;DHT22;16985;50.814;8.530;2023-12-22T15:07:30;6.80;99.90
30174;DHT22;16985;50.814;8.530;2023-12-22T15:10:01;6.80;99.90
30174;DHT22;16985;50.814;8.530;2023-12-22T15:12:32;6.90;99.90
30174;DHT22;16985;50.814;8.530;2023-12-22T15:15:05;6.90;99.90
30174;DHT22;16985;50.814;8.530;2023-12-22T15:17:33;6.90;99.90
30174;DHT22;16985;50.814;8.530;2023-12-22T15:20:02;6.90;99.90
30174;DHT22;16985;50.814;8.530;2023-12-22T15:22:35;6.90;99.90
30174;DHT22;16985;50.814;8.530;2023-12-22T15:25:03;6.90;99.90
30174;DHT22;16985;50.814;8.530;2023-12-22T15:27:32;6.90;99.90
30174;DHT22;16985;50.814;8.530;2023-12-22T15:30:03;6.90;99.90
30174;DHT22;16985;50.814;8.530;2023-12-22T15:32:32;6.90;99.90
30174;DHT22;16985;50.814;8.530;2023-12-22T15:35:05;6.90;99.90
30174;DHT22;16985;50.814;8.530;2023-12-22T15:37:35;7.00;99.90
30174;DHT22;16985;50.814;8.530;2023-12-22T15:40:03;6.90;99.90
30174;DHT22;16985;50.814;8.530;2023-12-22T15:42:32;7.00;99.90
30174;DHT22;16985;50.814;8.530;2023-12-22T15:45:00;7.00;99.90
30174;DHT22;16985;50.814;8.530;2023-12-22T15:47:31;7.00;99.90
30174;DHT22;16985;50.814;8.530;2023-12-22T15:50:00;7.00;99.90
30174;DHT22;16985;50.814;8.530;2023-12-22T15:52:29;7.00;99.90
30174;DHT22;16985;50.814;8.530;2023-12-22T15:54:57;7.00;99.90
30174;DHT22;16985;50.814;8.530;2023-12-22T15:57:25;7.00;99.90
30174;DHT22;16985;50.814;8.530;2023-12-22T15:59:54;7.00;99.90
30174;DHT22;16985;50.814;8.530;2023-12-22T16:02:22;7.10;99.90
30174;DHT22;16985;50.814;8.530;2023-12-22T16:04:50;7.10;99.90